Time;durP1;ratioP1;P1;durP2;ratioP2;P2;SDS_P1;SDS_P2;PMS_P1;PMS_P2;Temp;Humidity;BMP_temperature;BMP_pressure;BME280_temperature;BME280_humidity;BME280_pressure;Samples;Min_cycle;Max_cycle;Signal;HPM_P1;HPM_P2
2021/06/23 00:01:01;;;;;;;3.80;3.60;;;23.60;39.50;;;;;;4997852;28;20534;-83
2021/06/23 00:03:27;;;;;;;3.90;3.70;;;23.60;39.50;;;;;;4980206;28;20210;-81
2021/06/23 00:05:53;;;;;;;4.67;4.47;;;23.60;39.50;;;;;;4980624;28;20637;-81
2021/06/23 00:08:18;;;;;;;4.30;4.10;;;23.60;39.50;;;;;;4996560;28;20280;-80
2021/06/23 00:10:44;;;;;;;3.33;3.23;;;23.60;39.50;;;;;;4996549;28;20580;-82
2021/06/23 00:13:10;;;;;;;4.03;3.83;;;23.60;39.50;;;;;;4978410;28;20202;-83
2021/06/23 00:15:37;;;;;;;4.13;3.93;;;23.60;39.50;;;;;;4978658;28;20480;-81
2021/06/23 00:18:04;;;;;;;3.77;3.57;;;23.60;39.50;;;;;;4995932;28;20177;-82
2021/06/23 00:20:30;;;;;;;3.60;3.50;;;23.60;39.50;;;;;;4978935;28;20800;-83
2021/06/23 00:23:12;;;;;;;4.50;4.30;;;23.60;39.40;;;;;;4996151;28;20444;-84
2021/06/23 00:25:45;;;;;;;4.10;3.90;;;23.60;39.50;;;;;;5000803;28;20409;-82
2021/06/23 00:28:14;;;;;;;4.43;4.23;;;23.60;39.40;;;;;;5000646;28;20452;-81
2021/06/23 00:30:40;;;;;;;3.90;3.70;;;23.60;39.50;;;;;;4982887;28;20445;-82
2021/06/23 00:33:09;;;;;;;3.83;3.63;;;23.60;39.40;;;;;;4966352;28;20429;-81
2021/06/23 00:35:37;;;;;;;4.50;4.20;;;23.60;39.40;;;;;;4982513;28;20428;-83
2021/06/23 00:38:04;;;;;;;4.10;3.90;;;23.60;39.50;;;;;;4983321;28;20417;-83
2021/06/23 00:40:31;;;;;;;3.90;3.70;;;23.60;39.40;;;;;;4982639;28;20444;-84
2021/06/23 00:42:59;;;;;;;3.70;3.60;;;23.60;39.40;;;;;;4999800;28;20512;-81
2021/06/23 00:45:26;;;;;;;4.40;4.00;;;23.60;39.40;;;;;;4967419;28;20428;-82
2021/06/23 00:47:54;;;;;;;4.33;4.13;;;23.60;39.40;;;;;;4982328;28;20780;-81
2021/06/23 00:50:20;;;;;;;4.27;3.97;;;23.60;39.40;;;;;;4999489;28;20500;-82
2021/06/23 00:52:47;;;;;;;4.07;3.87;;;23.60;39.40;;;;;;4982111;28;20871;-81
2021/06/23 00:55:20;;;;;;;4.17;3.97;;;23.60;39.50;;;;;;4965954;28;20429;-81
2021/06/23 00:57:48;;;;;;;4.23;4.03;;;23.60;39.40;;;;;;4981128;28;20409;-81
2021/06/23 01:00:15;;;;;;;4.00;3.80;;;23.60;39.40;;;;;;4981849;28;20493;-82
2021/06/23 01:02:41;;;;;;;4.40;4.20;;;23.60;39.50;;;;;;4965524;28;20823;-82
2021/06/23 01:05:07;;;;;;;4.07;3.87;;;23.60;39.40;;;;;;4999426;28;20456;-81
2021/06/23 01:07:33;;;;;;;4.13;3.93;;;23.60;39.40;;;;;;4981676;28;20198;-82
2021/06/23 01:09:59;;;;;;;3.63;3.43;;;23.60;39.40;;;;;;4999129;28;20896;-83
2021/06/23 01:12:27;;;;;;;3.83;3.63;;;23.60;39.40;;;;;;4981355;28;20488;-81
2021/06/23 01:14:59;;;;;;;3.90;3.70;;;23.60;39.40;;;;;;4982033;28;20190;-82
2021/06/23 01:17:29;;;;;;;3.60;3.50;;;23.60;39.50;;;;;;4981892;28;20425;-81
2021/06/23 01:20:10;;;;;;;3.73;3.53;;;23.60;39.40;;;;;;4982695;28;20457;-83
2021/06/23 01:22:39;;;;;;;3.93;3.73;;;23.60;39.40;;;;;;4981811;28;20449;-82
2021/06/23 01:25:08;;;;;;;4.00;3.80;;;23.60;39.40;;;;;;4981409;28;20436;-83
2021/06/23 01:27:34;;;;;;;3.53;3.37;;;23.60;39.40;;;;;;4998442;28;20413;-81
2021/06/23 01:29:59;;;;;;;3.50;3.40;;;23.60;39.40;;;;;;4998859;28;20878;-81
2021/06/23 01:32:25;;;;;;;3.77;3.60;;;23.60;39.40;;;;;;4998980;28;20695;-83
2021/06/23 01:34:51;;;;;;;3.63;3.53;;;23.60;39.40;;;;;;4980621;28;20200;-81
2021/06/23 01:37:17;;;;;;;4.07;3.87;;;23.60;39.40;;;;;;4981442;28;20926;-84
2021/06/23 01:39:42;;;;;;;3.90;3.80;;;23.60;39.40;;;;;;4981373;28;20186;-82
2021/06/23 01:42:09;;;;;;;3.37;3.27;;;23.60;39.40;;;;;;4997996;28;20659;-81
2021/06/23 01:44:38;;;;;;;4.30;4.10;;;23.60;39.40;;;;;;4981179;28;20656;-81
2021/06/23 01:47:04;;;;;;;4.00;3.80;;;23.60;39.40;;;;;;4981320;28;20444;-82
2021/06/23 01:49:29;;;;;;;3.67;3.57;;;23.60;39.40;;;;;;4980854;28;20461;-81
2021/06/23 01:51:56;;;;;;;4.30;4.10;;;23.60;39.40;;;;;;4980480;28;20194;-83
2021/06/23 01:54:22;;;;;;;3.67;3.57;;;23.60;39.40;;;;;;4980826;28;20213;-83
2021/06/23 01:56:50;;;;;;;3.70;3.60;;;23.60;39.40;;;;;;4980538;28;20978;-84
2021/06/23 01:59:16;;;;;;;3.83;3.67;;;23.60;39.40;;;;;;4980596;28;20533;-83
2021/06/23 02:02:04;;;;;;;3.97;3.77;;;23.60;39.40;;;;;;4980387;28;20548;-83
2021/06/23 02:04:50;;;;;;;3.80;3.60;;;23.60;39.40;;;;;;4998386;28;20455;-82
2021/06/23 02:07:33;;;;;;;4.03;3.83;;;23.60;39.40;;;;;;4981233;28;20424;-83
2021/06/23 02:10:24;;;;;;;3.50;3.40;;;23.60;39.40;;;;;;4979360;28;20491;-83
2021/06/23 02:13:22;;;;;;;3.30;3.20;;;23.60;39.30;;;;;;4979868;28;20444;-82
2021/06/23 02:15:50;;;;;;;3.50;3.40;;;23.60;39.30;;;;;;4980519;28;20476;-81
2021/06/23 02:18:16;;;;;;;3.60;3.40;;;23.60;39.40;;;;;;4980360;28;20419;-84
2021/06/23 02:20:43;;;;;;;3.77;3.63;;;23.60;39.40;;;;;;4979427;28;20911;-82
2021/06/23 02:23:11;;;;;;;4.03;3.83;;;23.60;39.40;;;;;;4980247;28;20519;-83
2021/06/23 02:25:38;;;;;;;3.93;3.73;;;23.60;39.30;;;;;;4980041;28;20444;-82
2021/06/23 02:28:05;;;;;;;3.53;3.33;;;23.60;39.40;;;;;;4979371;28;20417;-81
2021/06/23 02:30:31;;;;;;;3.60;3.50;;;23.60;39.30;;;;;;4979796;28;20416;-82
2021/06/23 02:32:57;;;;;;;3.87;3.67;;;23.60;39.30;;;;;;4979586;28;20445;-82
2021/06/23 02:35:26;;;;;;;4.10;3.90;;;23.60;39.40;;;;;;4963736;28;20182;-81
2021/06/23 02:37:54;;;;;;;3.50;3.40;;;23.60;39.40;;;;;;4978931;28;20453;-81
2021/06/23 02:40:21;;;;;;;3.43;3.33;;;23.60;39.40;;;;;;4963699;28;20523;-82
2021/06/23 02:42:47;;;;;;;3.40;3.30;;;23.60;39.30;;;;;;4963255;28;20559;-84
2021/06/23 02:45:13;;;;;;;3.90;3.60;;;23.60;39.30;;;;;;4980078;28;20421;-83
2021/06/23 02:47:39;;;;;;;3.73;3.63;;;23.60;39.30;;;;;;4980004;28;20453;-84
2021/06/23 02:50:06;;;;;;;3.43;3.33;;;23.60;39.40;;;;;;4980258;28;20464;-83
2021/06/23 02:52:36;;;;;;;4.10;3.93;;;23.60;39.30;;;;;;4980174;28;20575;-83
2021/06/23 02:55:06;;;;;;;3.40;3.30;;;23.60;39.30;;;;;;4997696;28;20406;-83
2021/06/23 02:57:34;;;;;;;3.93;3.83;;;23.60;39.30;;;;;;4997273;28;20405;-84
2021/06/23 03:00:00;;;;;;;4.30;4.10;;;23.60;39.30;;;;;;4997471;28;20413;-83
2021/06/23 03:02:25;;;;;;;3.53;3.43;;;23.50;39.20;;;;;;4997057;28;20433;-83
2021/06/23 03:04:51;;;;;;;3.63;3.47;;;23.60;39.30;;;;;;4980282;28;20915;-85
2021/06/23 03:07:17;;;;;;;3.20;3.10;;;23.60;39.30;;;;;;4979801;28;20204;-82
2021/06/23 03:09:44;;;;;;;3.50;3.40;;;23.50;39.30;;;;;;4979816;28;20229;-82
2021/06/23 03:12:12;;;;;;;3.63;3.53;;;23.60;39.30;;;;;;4979446;28;20441;-84
2021/06/23 03:14:38;;;;;;;4.00;3.70;;;23.60;39.30;;;;;;4979732;28;20428;-83
2021/06/23 03:17:04;;;;;;;3.87;3.67;;;23.60;39.30;;;;;;4979189;28;20417;-84
2021/06/23 03:19:30;;;;;;;3.40;3.30;;;23.60;39.30;;;;;;4994816;28;20411;-82
2021/06/23 03:21:55;;;;;;;3.43;3.33;;;23.60;39.40;;;;;;4979038;28;20806;-81
2021/06/23 03:24:21;;;;;;;3.90;3.80;;;23.50;39.20;;;;;;4997671;28;20178;-81
2021/06/23 03:26:47;;;;;;;3.53;3.43;;;23.50;39.20;;;;;;4998087;28;20181;-81
2021/06/23 03:29:22;;;;;;;3.77;3.57;;;23.60;39.30;;;;;;4997098;28;20448;-81
2021/06/23 03:31:48;;;;;;;3.47;3.37;;;23.60;39.30;;;;;;4979443;28;20428;-81
2021/06/23 03:34:13;;;;;;;3.50;3.40;;;23.50;39.20;;;;;;4996794;28;20416;-81
2021/06/23 03:36:39;;;;;;;3.50;3.40;;;23.50;39.20;;;;;;4979133;28;20174;-82
2021/06/23 03:39:05;;;;;;;3.40;3.30;;;23.60;39.30;;;;;;4978765;28;20221;-81
2021/06/23 03:41:30;;;;;;;3.60;3.50;;;23.60;39.30;;;;;;4978963;28;20194;-83
2021/06/23 03:43:56;;;;;;;3.83;3.73;;;23.60;39.30;;;;;;4979717;28;20178;-82
2021/06/23 03:46:21;;;;;;;4.10;3.90;;;23.60;39.30;;;;;;4984502;28;20534;-82
2021/06/23 03:48:47;;;;;;;3.10;3.00;;;23.60;39.30;;;;;;4983349;28;20235;-83
2021/06/23 03:51:13;;;;;;;3.40;3.30;;;23.50;39.20;;;;;;4983216;28;20178;-83
2021/06/23 03:53:38;;;;;;;3.57;3.47;;;23.50;39.20;;;;;;5000865;28;20178;-81
2021/06/23 03:56:04;;;;;;;3.50;3.40;;;23.50;39.20;;;;;;4982976;28;20231;-82
2021/06/23 03:58:30;;;;;;;3.33;3.23;;;23.50;39.20;;;;;;5000222;28;20196;-82
2021/06/23 04:00:55;;;;;;;3.60;3.40;;;23.50;39.20;;;;;;4983001;28;20193;-83
2021/06/23 04:03:21;;;;;;;3.73;3.63;;;23.50;39.30;;;;;;4982618;28;20198;-84
2021/06/23 04:05:46;;;;;;;3.60;3.50;;;23.50;39.20;;;;;;4982735;28;20193;-82
2021/06/23 04:08:12;;;;;;;3.40;3.30;;;23.50;39.20;;;;;;4983076;28;20660;-82
2021/06/23 04:10:38;;;;;;;3.80;3.70;;;23.60;39.30;;;;;;4983397;28;20536;-82
2021/06/23 04:13:03;;;;;;;3.83;3.63;;;23.50;39.20;;;;;;5000854;28;20293;-82
2021/06/23 04:15:29;;;;;;;3.70;3.60;;;23.50;39.20;;;;;;5000549;28;20205;-80
2021/06/23 04:17:55;;;;;;;4.00;3.80;;;23.60;39.30;;;;;;4982678;28;20574;-81
2021/06/23 04:20:20;;;;;;;3.77;3.67;;;23.60;39.30;;;;;;4982747;28;20177;-82
2021/06/23 04:22:46;;;;;;;3.80;3.70;;;23.60;39.20;;;;;;4983740;28;20202;-83
2021/06/23 04:25:13;;;;;;;3.60;3.50;;;23.50;39.10;;;;;;4983195;28;20640;-83
2021/06/23 04:27:39;;;;;;;3.93;3.83;;;23.50;39.20;;;;;;4983922;28;20249;-83
2021/06/23 04:30:09;;;;;;;3.40;3.30;;;23.50;39.20;;;;;;5000775;28;20468;-82
2021/06/23 04:32:35;;;;;;;3.30;3.20;;;23.50;39.20;;;;;;5000375;28;20432;-82
2021/06/23 04:35:03;;;;;;;3.90;3.80;;;23.50;39.20;;;;;;4983039;28;20417;-82
2021/06/23 04:37:29;;;;;;;3.70;3.60;;;23.50;39.20;;;;;;4982003;28;20178;-81
2021/06/23 04:39:55;;;;;;;3.80;3.70;;;23.50;39.20;;;;;;5000896;28;20758;-84
2021/06/23 04:42:21;;;;;;;3.97;3.77;;;23.50;39.20;;;;;;4981115;28;20491;-82
2021/06/23 04:44:46;;;;;;;3.43;3.33;;;23.50;39.20;;;;;;4997085;28;20550;-78
2021/06/23 04:47:12;;;;;;;3.50;3.40;;;23.50;39.20;;;;;;4997766;28;20193;-80
2021/06/23 04:49:37;;;;;;;3.30;3.20;;;23.50;39.20;;;;;;5001487;28;20544;-82
2021/06/23 04:52:04;;;;;;;3.50;3.30;;;23.60;39.40;;;;;;4979696;28;20660;-84
2021/06/23 04:54:31;;;;;;;3.90;3.70;;;23.60;39.90;;;;;;4987885;28;20258;-80
2021/06/23 04:56:57;;;;;;;4.13;3.90;;;23.60;39.90;;;;;;4987441;28;20428;-82
2021/06/23 04:59:44;;;;;;;4.60;4.40;;;23.60;40.10;;;;;;4988876;28;20453;-82
2021/06/23 05:02:09;;;;;;;4.20;4.00;;;23.60;40.20;;;;;;5007297;28;20437;-79
2021/06/23 05:04:44;;;;;;;4.30;4.10;;;23.60;40.40;;;;;;4988972;28;20552;-82
2021/06/23 05:07:32;;;;;;;4.33;4.03;;;23.60;40.60;;;;;;4985906;28;20199;-80
2021/06/23 05:10:09;;;;;;;4.40;4.20;;;23.60;40.70;;;;;;4989886;28;20476;-80
2021/06/23 05:12:50;;;;;;;4.00;3.73;;;23.60;40.60;;;;;;4985223;28;20421;-80
2021/06/23 05:15:43;;;;;;;4.07;3.87;;;23.60;40.50;;;;;;4962694;28;20530;-80
2021/06/23 05:18:16;;;;;;;4.50;4.30;;;23.60;40.30;;;;;;4982438;28;20429;-79
2021/06/23 05:20:44;;;;;;;4.40;4.20;;;23.60;40.20;;;;;;4968183;28;20928;-79
2021/06/23 05:24:11;;;;;;;4.10;3.90;;;23.60;40.20;;;;;;4952578;28;20450;-80
2021/06/23 05:27:11;;;;;;;4.13;3.93;;;23.60;40.10;;;;;;4907024;28;20446;-80
2021/06/23 05:30:29;;;;;;;4.67;4.37;;;23.60;40.00;;;;;;4971000;28;20457;-82
2021/06/23 05:33:41;;;;;;;4.00;3.63;;;23.60;40.00;;;;;;4989085;28;20477;-83
2021/06/23 05:39:32;;;;;;;4.00;3.87;;;23.60;40.00;;;;;;5005275;28;20440;-80
2021/06/23 05:41:59;;;;;;;3.63;3.47;;;23.60;40.00;;;;;;4983197;28;20471;-79
2021/06/23 05:44:25;;;;;;;3.73;3.63;;;23.60;40.00;;;;;;4983360;28;20436;-80
2021/06/23 05:47:19;;;;;;;3.53;3.40;;;23.60;39.90;;;;;;5001533;28;20428;-81
2021/06/23 05:49:50;;;;;;;3.63;3.30;;;23.60;39.90;;;;;;4983633;28;20468;-80
2021/06/23 05:52:23;;;;;;;3.80;3.50;;;23.60;39.90;;;;;;4981204;28;20444;-82
2021/06/23 05:54:50;;;;;;;4.60;4.17;;;23.60;39.90;;;;;;4983777;28;20432;-79
2021/06/23 05:57:38;;;;;;;3.90;3.70;;;23.60;39.90;;;;;;4981983;28;20417;-80
2021/06/23 06:00:04;;;;;;;3.87;3.67;;;23.60;39.80;;;;;;4981510;28;20508;-81
2021/06/23 06:06:06;;;;;;;4.10;3.87;;;23.60;39.70;;;;;;4903322;29;20461;-78
2021/06/23 06:08:33;;;;;;;3.90;3.70;;;23.60;39.70;;;;;;4900866;29;20613;-79
2021/06/23 06:11:08;;;;;;;3.80;3.67;;;23.60;39.80;;;;;;4885992;29;20429;-78
2021/06/23 06:13:34;;;;;;;3.67;3.47;;;23.60;39.70;;;;;;4886823;29;20960;-77
2021/06/23 06:19:57;;;;;;;3.47;3.37;;;23.60;39.70;;;;;;4937853;29;20746;-80
2021/06/23 06:22:44;;;;;;;4.10;3.80;;;23.50;39.60;;;;;;4861917;29;20438;-78
2021/06/23 06:25:17;;;;;;;3.90;3.70;;;23.50;39.60;;;;;;4868525;29;20421;-79
2021/06/23 06:27:43;;;;;;;3.43;3.23;;;23.60;39.70;;;;;;4943806;28;20421;-78
2021/06/23 06:30:13;;;;;;;3.50;3.23;;;23.60;39.70;;;;;;4996092;28;20527;-80
2021/06/23 06:32:39;;;;;;;3.70;3.40;;;23.50;39.60;;;;;;4978175;28;20574;-79
2021/06/23 06:35:05;;;;;;;4.43;4.20;;;23.50;39.60;;;;;;4977634;28;20428;-82
2021/06/23 06:37:31;;;;;;;4.30;3.50;;;23.50;39.60;;;;;;4978647;28;20183;-79
2021/06/23 06:39:57;;;;;;;4.10;3.90;;;23.60;39.70;;;;;;4978446;28;20949;-80
2021/06/23 06:42:23;;;;;;;4.47;4.13;;;23.50;39.60;;;;;;4978938;28;20650;-79
2021/06/23 06:44:52;;;;;;;4.30;4.00;;;23.40;39.80;;;;;;4979281;28;20524;-79
2021/06/23 06:47:17;;;;;;;4.93;4.40;;;23.40;39.90;;;;;;4978873;28;20182;-79
2021/06/23 06:49:44;;;;;;;4.00;3.70;;;23.50;39.90;;;;;;4978155;28;20470;-79
2021/06/23 06:52:10;;;;;;;4.07;3.77;;;23.50;39.90;;;;;;4975979;28;20566;-80
2021/06/23 06:54:35;;;;;;;5.50;5.00;;;23.50;39.80;;;;;;4959779;28;20425;-79
2021/06/23 06:57:01;;;;;;;6.37;3.93;;;23.50;39.80;;;;;;4977693;28;20197;-79
2021/06/23 06:59:27;;;;;;;4.23;3.93;;;23.50;39.70;;;;;;4978415;28;20182;-81
2021/06/23 07:01:52;;;;;;;4.43;4.13;;;23.50;40.00;;;;;;4978266;28;20261;-81
2021/06/23 07:04:18;;;;;;;4.73;4.43;;;23.50;39.80;;;;;;4997022;28;20182;-79
2021/06/23 07:06:46;;;;;;;4.33;4.03;;;23.50;39.80;;;;;;4980158;28;20229;-80
2021/06/23 07:09:12;;;;;;;4.57;4.37;;;23.50;39.70;;;;;;4980478;28;20460;-80
2021/06/23 07:11:38;;;;;;;4.30;4.10;;;23.50;39.70;;;;;;5005053;28;20462;-79
2021/06/23 07:14:04;;;;;;;6.60;4.20;;;23.50;39.80;;;;;;5008622;28;20447;-81
2021/06/23 07:16:32;;;;;;;4.37;4.17;;;23.50;39.60;;;;;;4992226;28;20432;-80
2021/06/23 07:18:58;;;;;;;4.73;4.20;;;23.50;39.50;;;;;;4990329;28;20683;-82
2021/06/23 07:21:24;;;;;;;4.70;4.30;;;23.50;39.70;;;;;;4985353;28;20426;-82
2021/06/23 07:23:53;;;;;;;4.50;4.20;;;23.50;39.80;;;;;;4970271;28;20218;-81
2021/06/23 07:26:20;;;;;;;5.30;4.90;;;23.50;39.80;;;;;;4972270;28;20433;-82
2021/06/23 07:28:53;;;;;;;4.80;4.50;;;23.50;39.70;;;;;;4988664;28;20465;-82
2021/06/23 07:31:31;;;;;;;4.90;4.60;;;23.50;39.70;;;;;;4986773;28;20418;-80
2021/06/23 07:34:12;;;;;;;5.27;4.87;;;23.50;40.50;;;;;;5005385;28;20452;-78
2021/06/23 07:36:49;;;;;;;4.10;3.80;;;23.50;40.30;;;;;;5005032;28;20432;-80
2021/06/23 07:39:17;;;;;;;6.63;4.50;;;23.50;40.40;;;;;;5004057;28;20424;-80
2021/06/23 07:41:45;;;;;;;4.57;4.37;;;23.50;40.20;;;;;;5004790;28;20441;-78
2021/06/23 07:44:13;;;;;;;5.60;4.93;;;23.60;40.40;;;;;;4998227;28;20464;-79
2021/06/23 07:46:54;;;;;;;4.90;4.60;;;23.60;40.30;;;;;;4963754;28;20485;-80
2021/06/23 07:49:22;;;;;;;4.50;4.20;;;23.50;40.30;;;;;;4961245;28;20461;-79
2021/06/23 07:51:58;;;;;;;4.30;4.10;;;23.50;40.40;;;;;;4974796;28;20450;-79
2021/06/23 07:54:32;;;;;;;5.20;4.73;;;23.50;40.50;;;;;;4976694;28;20417;-80
2021/06/23 08:02:51;;;;;;;4.63;4.40;;;23.60;40.50;;;;;;4977136;28;20445;-79
2021/06/23 08:10:48;;;;;;;4.70;4.40;;;23.60;40.30;;;;;;4996405;28;20420;-82
2021/06/23 08:13:15;;;;;;;4.80;4.50;;;23.60;40.90;;;;;;4996075;28;20842;-78
2021/06/23 08:15:46;;;;;;;4.17;3.97;;;23.60;40.30;;;;;;4995156;28;21013;-79
2021/06/23 08:18:15;;;;;;;4.30;4.10;;;23.60;40.30;;;;;;4980512;28;20938;-79
2021/06/23 08:20:41;;;;;;;4.37;4.10;;;23.60;40.30;;;;;;4959323;28;20419;-80
2021/06/23 08:23:09;;;;;;;3.77;3.57;;;23.60;40.30;;;;;;4979811;28;20465;-81
2021/06/23 08:25:34;;;;;;;4.83;4.53;;;23.60;40.20;;;;;;4961175;28;20425;-80
2021/06/23 08:28:00;;;;;;;4.70;4.30;;;23.60;40.30;;;;;;4979972;28;20410;-80
2021/06/23 08:30:26;;;;;;;4.70;4.40;;;23.60;40.20;;;;;;4979255;28;20260;-80
2021/06/23 08:32:52;;;;;;;4.27;4.03;;;23.60;40.20;;;;;;4980211;28;20434;-79
2021/06/23 08:35:24;;;;;;;4.53;4.20;;;23.60;40.10;;;;;;4980147;28;20232;-80
2021/06/23 08:37:50;;;;;;;4.13;3.90;;;23.60;40.10;;;;;;4966302;28;20179;-80
2021/06/23 08:40:15;;;;;;;5.00;4.60;;;23.60;40.10;;;;;;4964178;28;20429;-81
2021/06/23 08:42:41;;;;;;;4.87;4.67;;;23.60;40.10;;;;;;4963894;28;20549;-80
2021/06/23 08:45:08;;;;;;;5.20;4.90;;;23.60;40.10;;;;;;4981332;28;20262;-79
2021/06/23 08:47:41;;;;;;;5.20;4.90;;;23.60;40.00;;;;;;4982622;28;20424;-80
2021/06/23 08:50:09;;;;;;;4.43;4.33;;;23.60;40.10;;;;;;4964050;28;20500;-80
2021/06/23 08:52:35;;;;;;;4.77;4.47;;;23.60;40.00;;;;;;4979396;28;20436;-79
2021/06/23 08:55:00;;;;;;;4.60;4.40;;;23.60;40.10;;;;;;4977910;28;20500;-80
2021/06/23 08:57:26;;;;;;;4.73;4.50;;;23.60;40.00;;;;;;4978024;28;20181;-80
2021/06/23 08:59:51;;;;;;;5.07;4.77;;;23.60;40.10;;;;;;4974436;28;20268;-80
2021/06/23 09:02:17;;;;;;;5.10;4.80;;;23.60;40.10;;;;;;5001723;28;20204;-80
2021/06/23 09:05:16;;;;;;;4.83;4.53;;;23.60;40.00;;;;;;4988336;28;20188;-79
2021/06/23 09:07:48;;;;;;;4.60;4.40;;;23.60;40.10;;;;;;4952739;28;20182;-81
2021/06/23 09:10:23;;;;;;;4.80;4.50;;;23.60;40.20;;;;;;4999548;28;20495;-78
2021/06/23 09:13:01;;;;;;;4.73;4.53;;;23.60;40.20;;;;;;4999725;28;20431;-80
2021/06/23 09:15:46;;;;;;;4.43;4.20;;;23.60;40.20;;;;;;4983127;28;20433;-79
2021/06/23 09:18:34;;;;;;;5.03;4.73;;;23.60;40.40;;;;;;4998084;28;20404;-80
2021/06/23 09:21:19;;;;;;;4.60;4.37;;;23.60;40.50;;;;;;4997543;28;20467;-78
2021/06/23 09:23:56;;;;;;;4.80;4.50;;;23.60;40.50;;;;;;4995727;28;20471;-81
2021/06/23 09:26:24;;;;;;;5.20;5.00;;;23.60;41.30;;;;;;4998876;28;20428;-80
2021/06/23 09:29:11;;;;;;;4.67;4.47;;;23.60;42.00;;;;;;4997331;28;20445;-77
2021/06/23 09:32:00;;;;;;;4.43;4.23;;;23.60;41.30;;;;;;4996837;28;20448;-80
2021/06/23 09:34:29;;;;;;;5.43;5.03;;;23.60;41.10;;;;;;4979521;28;20413;-79
2021/06/23 09:36:56;;;;;;;5.03;4.73;;;23.60;41.40;;;;;;4998916;28;20820;-79
2021/06/23 09:39:28;;;;;;;5.50;5.20;;;23.60;41.70;;;;;;4981413;28;20417;-80
2021/06/23 09:41:54;;;;;;;6.87;6.27;;;23.60;42.30;;;;;;4980591;28;20439;-81
2021/06/23 09:44:22;;;;;;;5.03;4.83;;;23.60;42.10;;;;;;4978312;28;20421;-78
2021/06/23 09:46:49;;;;;;;5.67;5.37;;;23.60;42.10;;;;;;4982668;28;20418;-77
2021/06/23 09:49:20;;;;;;;5.23;4.90;;;23.60;42.20;;;;;;4979564;28;20461;-77
2021/06/23 09:51:46;;;;;;;5.40;5.10;;;23.60;42.20;;;;;;4978296;28;20466;-79
2021/06/23 09:54:14;;;;;;;5.17;4.87;;;23.60;42.80;;;;;;4960001;28;20433;-78
2021/06/23 09:56:47;;;;;;;5.63;5.30;;;23.60;42.60;;;;;;4962943;28;20182;-79
2021/06/23 09:59:34;;;;;;;5.27;4.97;;;23.60;42.50;;;;;;4957764;28;20943;-79
2021/06/23 10:02:04;;;;;;;4.40;4.13;;;23.60;42.40;;;;;;4975977;28;20437;-78
2021/06/23 10:04:36;;;;;;;5.10;4.80;;;23.60;42.40;;;;;;4976984;28;20446;-79
2021/06/23 10:07:05;;;;;;;5.20;4.83;;;23.60;42.40;;;;;;4962509;28;20429;-80
2021/06/23 10:09:32;;;;;;;4.43;4.23;;;23.60;42.40;;;;;;4979140;28;20491;-79
2021/06/23 10:12:02;;;;;;;4.70;4.30;;;23.70;42.40;;;;;;4979012;28;20460;-78
2021/06/23 10:14:30;;;;;;;5.20;4.90;;;23.70;42.50;;;;;;4978953;28;20437;-78
2021/06/23 10:16:57;;;;;;;4.47;4.27;;;23.70;42.40;;;;;;4978872;28;20622;-78
2021/06/23 10:19:23;;;;;;;5.03;4.63;;;23.60;42.50;;;;;;4977663;28;21240;-82
2021/06/23 10:21:49;;;;;;;4.50;4.30;;;23.70;42.80;;;;;;4959251;28;20461;-81
2021/06/23 10:24:16;;;;;;;5.07;4.77;;;23.70;43.50;;;;;;4959006;28;20179;-80
2021/06/23 10:26:48;;;;;;;5.90;5.27;;;23.70;43.00;;;;;;4959688;28;20417;-78
2021/06/23 10:29:19;;;;;;;5.50;5.00;;;23.60;43.10;;;;;;4959078;28;20453;-79
2021/06/23 10:31:46;;;;;;;4.83;4.53;;;23.60;42.90;;;;;;4977170;28;20438;-78
2021/06/23 10:34:11;;;;;;;5.50;5.17;;;23.60;42.80;;;;;;4989462;28;20926;-80
2021/06/23 10:36:41;;;;;;;5.07;4.77;;;23.60;42.60;;;;;;4982864;28;20421;-82
2021/06/23 10:39:11;;;;;;;7.57;5.23;;;23.70;42.50;;;;;;5007871;28;20166;-83
2021/06/23 10:41:49;;;;;;;;;;;;;;;;;;;;;
2021/06/23 10:44:32;;;;;;;4.37;4.07;;;23.70;42.50;;;;;;4959689;28;20492;-83
2021/06/23 10:47:10;;;;;;;4.80;4.50;;;23.70;42.20;;;;;;4986941;28;20479;-82
2021/06/23 10:49:55;;;;;;;4.77;4.47;;;23.80;41.70;;;;;;4990278;28;20469;-82
2021/06/23 10:52:57;;;;;;;;;;;;;;;;;;;;;
2021/06/23 10:55:40;;;;;;;3.97;3.77;;;23.80;41.20;;;;;;4974120;28;20499;-82
2021/06/23 10:58:40;;;;;;;4.53;4.20;;;23.80;42.10;;;;;;4972962;28;20480;-82
2021/06/23 11:04:29;;;;;;;4.53;4.23;;;23.80;40.80;;;;;;5015371;23;20488;-83
2021/06/23 11:07:58;;;;;;;4.63;4.23;;;23.80;41.10;;;;;;4987707;28;20484;-81
2021/06/23 11:18:04;;;;;;;3.93;3.70;;;23.80;39.60;;;;;;4908032;29;20400;-82
2021/06/23 12:11:18;;;;;;;3.67;3.47;;;23.90;35.80;;;;;;4904753;29;20505;-82
2021/06/23 12:14:09;;;;;;;3.70;3.30;;;23.90;36.10;;;;;;4920904;29;20452;-81
2021/06/23 12:16:56;;;;;;;3.30;3.20;;;23.90;35.90;;;;;;4943837;29;20522;-80
2021/06/23 12:19:52;;;;;;;3.47;3.27;;;23.90;35.80;;;;;;4952093;29;20431;-81
2021/06/23 12:22:24;;;;;;;4.17;3.40;;;23.90;36.30;;;;;;4969435;28;20435;-82
2021/06/23 12:24:50;;;;;;;3.00;2.90;;;23.90;36.60;;;;;;4951260;29;20475;-83
2021/06/23 12:27:16;;;;;;;3.07;2.97;;;23.90;35.30;;;;;;4951085;29;20438;-83
2021/06/23 12:29:51;;;;;;;3.27;3.17;;;23.90;36.10;;;;;;4969276;29;20454;-82
2021/06/23 12:32:17;;;;;;;3.50;3.30;;;23.90;36.00;;;;;;4951771;29;20199;-83
2021/06/23 12:34:43;;;;;;;3.20;2.97;;;23.90;36.30;;;;;;4971585;29;20470;-82
2021/06/23 12:37:08;;;;;;;4.80;3.17;;;23.90;35.10;;;;;;4970319;29;20179;-81
2021/06/23 12:39:35;;;;;;;2.90;2.80;;;23.90;35.80;;;;;;4970402;29;20179;-81
2021/06/23 12:42:01;;;;;;;2.73;2.63;;;23.90;35.90;;;;;;4951946;29;20285;-81
2021/06/23 12:44:26;;;;;;;3.00;2.90;;;23.90;36.10;;;;;;4954747;28;20443;-81
2021/06/23 12:46:52;;;;;;;3.10;2.97;;;23.90;35.70;;;;;;4989671;28;20432;-81
2021/06/23 12:49:18;;;;;;;3.10;3.00;;;23.90;33.30;;;;;;5006046;28;20194;-81
2021/06/23 12:51:55;;;;;;;2.90;2.80;;;23.90;34.40;;;;;;4972236;28;20464;-81
2021/06/23 12:54:21;;;;;;;3.10;2.90;;;23.90;35.30;;;;;;4949969;28;20182;-83
2021/06/23 12:56:47;;;;;;;3.37;3.27;;;23.90;34.70;;;;;;4968027;28;20425;-79
2021/06/23 12:59:12;;;;;;;3.80;3.70;;;23.90;34.90;;;;;;4965175;28;20178;-80
2021/06/23 13:01:38;;;;;;;3.03;2.93;;;23.90;35.00;;;;;;4980405;28;20500;-80
2021/06/23 13:04:04;;;;;;;3.37;3.07;;;23.90;33.30;;;;;;4979091;28;20186;-81
2021/06/23 13:06:32;;;;;;;3.20;3.10;;;23.90;34.00;;;;;;4964206;28;20205;-80
2021/06/23 13:08:58;;;;;;;3.20;3.00;;;23.90;34.70;;;;;;4963672;28;20202;-82
2021/06/23 13:11:58;;;;;;;3.00;2.90;;;23.90;34.60;;;;;;4978442;28;20426;-83
2021/06/23 13:14:23;;;;;;;3.00;2.90;;;23.90;34.60;;;;;;4947520;28;20414;-81
2021/06/23 13:16:52;;;;;;;3.40;3.20;;;23.90;33.30;;;;;;4978584;28;20412;-82
2021/06/23 13:19:22;;;;;;;3.13;3.03;;;23.90;34.70;;;;;;4961963;28;20187;-82
2021/06/23 13:21:57;;;;;;;3.27;3.17;;;23.90;34.80;;;;;;5038681;23;20571;-82
2021/06/23 13:24:25;;;;;;;3.27;3.10;;;23.90;35.40;;;;;;5017945;28;20535;-80
2021/06/23 13:27:09;;;;;;;2.97;2.77;;;23.80;35.50;;;;;;5017614;28;20452;-81
2021/06/23 14:16:44;;;;;;;3.53;3.33;;;23.70;36.20;;;;;;4998937;28;20395;-81
2021/06/23 14:19:09;;;;;;;4.10;3.80;;;23.70;36.50;;;;;;4998166;28;20509;-80
2021/06/23 14:21:40;;;;;;;3.57;3.37;;;23.70;36.50;;;;;;4997489;28;20202;-82
2021/06/23 14:24:06;;;;;;;5.20;3.87;;;23.70;36.50;;;;;;4981619;28;20196;-80
2021/06/23 14:26:34;;;;;;;3.67;3.47;;;23.70;36.80;;;;;;4979754;28;20425;-80
2021/06/23 14:29:20;;;;;;;4.23;4.00;;;23.80;36.80;;;;;;5012296;28;20550;-80
2021/06/23 14:31:46;;;;;;;5.17;4.30;;;23.70;37.40;;;;;;4999304;28;20447;-81
2021/06/23 14:34:15;;;;;;;3.87;3.67;;;23.70;37.10;;;;;;4997749;28;20420;-81
2021/06/23 14:36:40;;;;;;;5.60;4.13;;;23.80;36.90;;;;;;5016648;28;20420;-82
2021/06/23 14:39:06;;;;;;;3.77;3.40;;;23.70;37.10;;;;;;5016638;28;20416;-79
2021/06/23 14:41:32;;;;;;;4.73;3.77;;;23.80;37.30;;;;;;5017804;28;20197;-81
2021/06/23 14:43:58;;;;;;;4.17;3.97;;;23.80;37.70;;;;;;5002240;28;20185;-81
2021/06/23 14:46:23;;;;;;;3.67;3.40;;;23.70;37.50;;;;;;5004670;28;20482;-82
2021/06/23 14:48:49;;;;;;;4.20;3.90;;;23.70;37.90;;;;;;5004463;28;20205;-82
2021/06/23 14:51:17;;;;;;;3.90;3.70;;;23.70;38.40;;;;;;5021249;28;20173;-83
2021/06/23 14:53:43;;;;;;;3.93;3.67;;;23.70;38.20;;;;;;5003316;28;20416;-83
2021/06/23 14:56:09;;;;;;;5.20;3.90;;;23.70;38.20;;;;;;5002730;28;20413;-81
2021/06/23 14:58:34;;;;;;;4.57;4.27;;;23.70;38.90;;;;;;5018361;28;20180;-83
2021/06/23 15:01:00;;;;;;;4.20;3.93;;;23.70;39.90;;;;;;4993315;28;20186;-81
2021/06/23 15:03:25;;;;;;;4.30;4.10;;;23.70;39.40;;;;;;4997241;28;20668;-81
2021/06/23 15:05:51;;;;;;;4.97;4.47;;;23.70;39.80;;;;;;4996090;28;20702;-80
2021/06/23 15:08:17;;;;;;;5.50;5.10;;;23.60;40.60;;;;;;4998049;28;20201;-82
2021/06/23 15:10:43;;;;;;;5.00;4.70;;;23.60;40.50;;;;;;4998784;28;20205;-81
2021/06/23 15:13:09;;;;;;;4.97;4.40;;;23.70;40.30;;;;;;4966649;28;20411;-80
2021/06/23 15:15:34;;;;;;;5.17;4.83;;;23.70;40.60;;;;;;4999541;28;20417;-82